createdAt,value
2023-03-20T00:01:51.793Z,1.73
2023-03-20T00:04:20.226Z,2.10
2023-03-20T00:06:48.417Z,1.70
2023-03-20T00:09:18.027Z,1.50
2023-03-20T00:11:50.387Z,1.30
2023-03-20T00:14:19.720Z,1.40
2023-03-20T00:16:48.895Z,1.20
2023-03-20T00:19:20.743Z,1.67
2023-03-20T00:21:48.661Z,1.07
2023-03-20T00:24:20.868Z,1.27
2023-03-20T00:26:50.369Z,1.60
2023-03-20T00:29:25.109Z,1.37
2023-03-20T00:31:54.025Z,1.30
2023-03-20T00:34:29.013Z,1.40
2023-03-20T00:36:58.135Z,1.23
2023-03-20T00:39:26.348Z,1.40
2023-03-20T00:41:56.115Z,1.57
2023-03-20T00:44:26.300Z,1.27
2023-03-20T00:46:57.187Z,1.93
2023-03-20T00:49:31.356Z,1.43
2023-03-20T00:51:59.732Z,1.67
2023-03-20T00:54:33.499Z,2.23
2023-03-20T00:57:04.422Z,2.50
2023-03-20T00:59:36.148Z,2.37
2023-03-20T01:02:10.011Z,2.90
2023-03-20T01:04:43.216Z,2.53
2023-03-20T01:07:14.917Z,2.20
2023-03-20T01:09:43.215Z,1.70
2023-03-20T01:12:12.360Z,2.50
2023-03-20T01:14:43.213Z,2.60
2023-03-20T01:17:13.606Z,3.03
2023-03-20T01:19:43.538Z,2.70
2023-03-20T01:22:11.627Z,2.60
2023-03-20T01:24:43.498Z,2.70
2023-03-20T01:27:14.693Z,2.83
2023-03-20T01:29:47.494Z,2.60
2023-03-20T01:32:28.881Z,2.50
2023-03-20T01:34:59.269Z,2.90
2023-03-20T01:37:31.898Z,2.90
2023-03-20T01:40:07.012Z,2.30
2023-03-20T01:42:39.080Z,2.20
2023-03-20T01:45:19.233Z,2.43
2023-03-20T01:47:54.701Z,2.20
2023-03-20T01:50:28.227Z,2.30
2023-03-20T01:53:01.177Z,2.80
2023-03-20T01:55:31.721Z,2.90
2023-03-20T01:58:04.786Z,2.00
2023-03-20T02:00:33.474Z,2.50
2023-03-20T02:03:05.130Z,2.23
2023-03-20T02:05:35.318Z,2.67
2023-03-20T02:08:23.012Z,1.97
2023-03-20T02:10:52.389Z,2.27
2023-03-20T02:13:21.213Z,2.50
2023-03-20T02:16:07.449Z,2.30
2023-03-20T02:18:43.225Z,2.00
2023-03-20T02:21:38.796Z,1.80
2023-03-20T02:24:40.750Z,2.07
2023-03-20T02:27:15.047Z,1.90
2023-03-20T02:30:06.249Z,1.90
2023-03-20T02:33:03.832Z,1.60
2023-03-20T02:35:54.180Z,1.70
2023-03-20T02:38:31.683Z,1.60
2023-03-20T02:41:06.691Z,1.40
2023-03-20T02:43:40.661Z,1.80
2023-03-20T02:46:23.537Z,1.27
2023-03-20T02:48:58.496Z,1.83
2023-03-20T02:51:36.108Z,1.60
2023-03-20T02:54:09.098Z,1.20
2023-03-20T02:56:39.587Z,1.40
2023-03-20T02:59:14.930Z,1.53
2023-03-20T03:01:45.619Z,1.70
2023-03-20T03:04:18.851Z,1.50
2023-03-20T03:06:48.929Z,1.23
2023-03-20T03:09:24.769Z,1.47
2023-03-20T03:11:57.112Z,1.33
2023-03-20T03:14:31.725Z,1.40
2023-03-20T03:17:04.308Z,1.30
2023-03-20T03:19:38.112Z,1.40
2023-03-20T03:22:06.302Z,0.90
2023-03-20T03:24:42.044Z,1.27
2023-03-20T03:27:18.400Z,0.93
2023-03-20T03:29:55.805Z,1.23
2023-03-20T03:32:28.282Z,0.90
2023-03-20T03:34:57.286Z,1.30
2023-03-20T03:37:31.166Z,1.23
2023-03-20T03:40:08.116Z,1.00
2023-03-20T03:42:40.861Z,1.00
2023-03-20T03:45:21.925Z,0.83
2023-03-20T03:47:55.553Z,1.20
2023-03-20T03:50:26.944Z,0.97
2023-03-20T03:53:00.017Z,1.20
2023-03-20T03:55:31.589Z,0.90
2023-03-20T03:58:02.706Z,1.07
2023-03-20T04:00:32.583Z,1.17
2023-03-20T04:03:00.342Z,1.00
2023-03-20T04:05:35.525Z,1.10
2023-03-20T04:08:08.768Z,1.00
2023-03-20T04:10:37.881Z,1.00
2023-03-20T04:13:06.903Z,1.33
2023-03-20T04:15:37.172Z,1.30
2023-03-20T04:18:05.436Z,0.70
2023-03-20T04:20:36.562Z,0.83
2023-03-20T04:23:11.418Z,1.00
2023-03-20T04:25:42.253Z,0.87
2023-03-20T04:28:11.615Z,0.90
2023-03-20T04:30:48.639Z,0.90
2023-03-20T04:33:21.637Z,0.80
2023-03-20T04:35:50.476Z,0.90
2023-03-20T04:38:20.237Z,0.70
2023-03-20T04:40:54.332Z,1.00
2023-03-20T04:43:22.054Z,0.93
2023-03-20T04:45:52.744Z,0.80
2023-03-20T04:48:22.752Z,0.90
2023-03-20T04:50:50.983Z,1.00
2023-03-20T04:53:19.227Z,0.80
2023-03-20T04:55:48.146Z,0.87
2023-03-20T04:58:21.325Z,1.30
2023-03-20T05:00:51.766Z,0.83
2023-03-20T05:03:22.499Z,0.80
2023-03-20T05:05:59.588Z,0.80
2023-03-20T05:08:27.774Z,0.70
2023-03-20T05:10:59.403Z,1.07
2023-03-20T05:13:36.121Z,0.97
2023-03-20T05:16:04.422Z,1.00
2023-03-20T05:18:32.535Z,1.13
2023-03-20T05:21:01.551Z,0.70
2023-03-20T05:23:30.439Z,0.63
2023-03-20T05:25:58.465Z,0.90
2023-03-20T05:28:26.239Z,0.90
2023-03-20T05:30:58.029Z,1.00
2023-03-20T05:33:30.050Z,1.03
2023-03-20T05:36:03.491Z,1.10
2023-03-20T05:38:34.136Z,0.87
2023-03-20T05:41:15.721Z,1.03
2023-03-20T05:43:44.085Z,0.90
2023-03-20T05:46:18.735Z,0.90
2023-03-20T05:48:48.030Z,1.20
2023-03-20T05:51:16.127Z,0.83
2023-03-20T05:53:43.869Z,0.90
2023-03-20T05:56:13.792Z,1.70
2023-03-20T05:58:42.565Z,1.60
2023-03-20T06:01:10.718Z,1.30
2023-03-20T06:03:39.934Z,2.23
2023-03-20T06:06:08.376Z,1.90
2023-03-20T06:08:39.458Z,1.40
2023-03-20T06:11:08.058Z,1.30
2023-03-20T06:13:38.049Z,1.50
2023-03-20T06:16:08.658Z,1.60
2023-03-20T06:18:36.544Z,1.53
2023-03-20T06:21:09.443Z,1.50
2023-03-20T06:23:39.451Z,1.53
2023-03-20T06:26:13.361Z,1.87
2023-03-20T06:28:44.087Z,1.43
2023-03-20T06:31:14.740Z,1.63
2023-03-20T06:33:45.518Z,1.40
2023-03-20T06:36:19.102Z,2.03
2023-03-20T06:38:46.919Z,1.60
2023-03-20T06:41:24.561Z,1.27
2023-03-20T06:44:03.365Z,1.63
2023-03-20T06:46:31.368Z,1.50
2023-03-20T06:48:59.162Z,2.00
2023-03-20T06:51:28.340Z,2.40
2023-03-20T06:53:56.744Z,1.90
2023-03-20T06:56:25.443Z,1.87
2023-03-20T06:58:53.287Z,1.23
2023-03-20T07:01:21.241Z,1.53
2023-03-20T07:03:49.050Z,1.50
2023-03-20T07:06:18.459Z,1.30
2023-03-20T07:08:47.665Z,1.57
2023-03-20T07:11:18.691Z,1.60
2023-03-20T07:13:49.832Z,1.23
2023-03-20T07:16:20.572Z,1.70
2023-03-20T07:18:50.047Z,1.70
2023-03-20T07:21:20.459Z,3.13
2023-03-20T07:23:49.932Z,1.27
2023-03-20T07:26:20.118Z,1.30
2023-03-20T07:28:52.780Z,1.50
2023-03-20T07:31:24.724Z,1.20
2023-03-20T07:33:52.770Z,1.17
2023-03-20T07:36:20.601Z,1.30
2023-03-20T07:38:51.909Z,1.40
2023-03-20T07:41:21.824Z,1.40
2023-03-20T07:43:52.872Z,1.47
2023-03-20T07:46:23.437Z,1.20
2023-03-20T07:48:51.463Z,1.50
2023-03-20T07:51:21.656Z,1.23
2023-03-20T07:53:54.899Z,1.20
2023-03-20T07:56:24.097Z,1.20
2023-03-20T07:58:53.388Z,1.33
2023-03-20T08:01:29.548Z,1.60
2023-03-20T08:03:59.075Z,1.20
2023-03-20T08:06:28.231Z,1.30
2023-03-20T08:08:59.463Z,1.80
2023-03-20T08:11:32.031Z,1.40
2023-03-20T08:14:04.840Z,1.40
2023-03-20T08:16:36.294Z,1.70
2023-03-20T08:19:08.531Z,1.30
2023-03-20T08:21:42.645Z,1.37
2023-03-20T08:24:21.720Z,1.63
2023-03-20T08:26:50.281Z,1.60
2023-03-20T08:29:19.890Z,1.57
2023-03-20T08:31:47.747Z,1.70
2023-03-20T08:34:15.616Z,1.90
2023-03-20T08:36:43.816Z,1.97
2023-03-20T08:39:13.286Z,1.70
2023-03-20T08:41:43.621Z,1.60
2023-03-20T08:44:14.652Z,1.80
2023-03-20T08:46:44.739Z,1.43
2023-03-20T08:49:14.004Z,1.80
2023-03-20T08:51:43.069Z,1.33
2023-03-20T08:54:18.470Z,1.47
2023-03-20T08:56:50.471Z,1.80
2023-03-20T08:59:22.514Z,1.20
2023-03-20T09:01:50.683Z,0.93
2023-03-20T09:04:21.203Z,1.43
2023-03-20T09:06:50.522Z,1.30
2023-03-20T09:09:29.278Z,1.33
2023-03-20T09:11:58.188Z,1.57
2023-03-20T09:14:31.195Z,1.40
2023-03-20T09:16:59.504Z,1.23
2023-03-20T09:19:30.734Z,1.80
2023-03-20T09:21:59.828Z,1.60
2023-03-20T09:24:31.536Z,1.63
2023-03-20T09:27:03.113Z,1.67
2023-03-20T09:29:35.041Z,1.70
2023-03-20T09:32:03.851Z,1.93
2023-03-20T09:34:31.710Z,2.33
2023-03-20T09:37:05.667Z,1.73
2023-03-20T09:39:36.294Z,1.60
2023-03-20T09:42:10.375Z,2.00
2023-03-20T09:44:47.674Z,1.80
2023-03-20T09:47:23.704Z,2.03
2023-03-20T09:50:03.196Z,1.67
2023-03-20T09:52:35.327Z,1.77
2023-03-20T09:55:09.014Z,2.00
2023-03-20T09:57:40.416Z,1.63
2023-03-20T10:00:13.234Z,1.87
2023-03-20T10:02:49.545Z,1.83
2023-03-20T10:05:25.074Z,1.83
2023-03-20T10:07:54.269Z,2.27
2023-03-20T10:10:32.885Z,2.40
2023-03-20T10:13:09.133Z,1.60
2023-03-20T10:15:46.974Z,1.87
2023-03-20T10:18:20.026Z,1.93
2023-03-20T10:20:52.733Z,2.00
2023-03-20T10:23:28.676Z,2.40
2023-03-20T10:26:07.297Z,2.30
2023-03-20T10:28:43.960Z,3.00
2023-03-20T10:31:43.779Z,3.63
2023-03-20T10:34:36.946Z,5.03
2023-03-20T10:37:17.791Z,2.93
2023-03-20T10:39:55.355Z,3.20
2023-03-20T10:42:39.205Z,3.30
2023-03-20T10:45:12.506Z,3.30
2023-03-20T10:47:42.592Z,3.60
2023-03-20T10:50:23.138Z,3.30
2023-03-20T10:52:55.451Z,3.40
2023-03-20T10:55:28.631Z,4.30
2023-03-20T10:58:03.428Z,3.07
2023-03-20T11:00:34.668Z,2.83
2023-03-20T11:03:03.106Z,3.60
2023-03-20T11:05:36.886Z,2.77
2023-03-20T11:08:06.968Z,3.30
2023-03-20T11:10:38.629Z,3.50
2023-03-20T11:13:25.126Z,3.20
2023-03-20T11:15:53.770Z,3.30
2023-03-20T11:18:22.442Z,3.23
2023-03-20T11:20:57.410Z,3.07
2023-03-20T11:23:27.422Z,2.50
2023-03-20T11:25:59.200Z,2.90
2023-03-20T11:28:38.308Z,3.00
2023-03-20T11:31:08.393Z,3.27
2023-03-20T11:33:40.903Z,3.00
2023-03-20T11:36:13.783Z,3.30
2023-03-20T11:38:46.303Z,2.83
2023-03-20T11:41:20.625Z,3.50
2023-03-20T11:43:50.046Z,2.80
2023-03-20T11:46:18.080Z,3.07
2023-03-20T11:49:06.316Z,2.70
2023-03-20T11:51:37.223Z,3.40
2023-03-20T11:54:07.133Z,3.30
2023-03-20T11:56:35.680Z,3.00
2023-03-20T11:59:13.015Z,3.63
2023-03-20T12:01:44.874Z,2.90
2023-03-20T12:04:15.016Z,3.83
2023-03-20T12:06:47.243Z,3.67
2023-03-20T12:09:35.470Z,3.13
2023-03-20T12:12:05.084Z,3.20
2023-03-20T12:14:46.039Z,2.77
2023-03-20T12:17:28.636Z,3.63
2023-03-20T12:20:01.526Z,3.00
2023-03-20T12:22:33.579Z,4.27
2023-03-20T12:25:06.027Z,3.33
2023-03-20T12:27:41.860Z,4.10
2023-03-20T12:30:16.926Z,3.37
2023-03-20T12:32:56.095Z,2.43
2023-03-20T12:35:28.660Z,3.17
2023-03-20T12:37:59.313Z,2.30
2023-03-20T12:40:43.786Z,3.50
2023-03-20T12:43:16.468Z,2.63
2023-03-20T12:45:52.327Z,2.77
2023-03-20T12:48:44.153Z,2.70
2023-03-20T12:51:16.567Z,2.70
2023-03-20T12:53:56.649Z,2.90
2023-03-20T12:56:34.443Z,2.47
2023-03-20T12:59:07.675Z,2.40
2023-03-20T13:01:43.703Z,2.80
2023-03-20T13:04:53.334Z,3.13
2023-03-20T13:07:22.632Z,2.73
2023-03-20T13:10:01.872Z,2.33
2023-03-20T13:12:42.463Z,2.20
2023-03-20T13:15:21.842Z,2.27
2023-03-20T13:17:55.553Z,2.07
2023-03-20T13:20:27.097Z,2.20
2023-03-20T13:23:14.633Z,1.93
2023-03-20T13:25:54.277Z,1.83
2023-03-20T13:28:31.294Z,1.83
2023-03-20T13:31:03.449Z,1.80
2023-03-20T13:33:44.646Z,1.90
2023-03-20T13:36:19.200Z,1.83
2023-03-20T13:38:49.483Z,1.53
2023-03-20T13:41:20.500Z,1.47
2023-03-20T13:43:54.375Z,1.40
2023-03-20T13:46:27.987Z,1.50
2023-03-20T13:49:02.708Z,1.40
2023-03-20T13:51:34.064Z,1.20
2023-03-20T13:54:08.722Z,1.70
2023-03-20T13:56:43.800Z,1.60
2023-03-20T13:59:25.503Z,1.30
2023-03-20T14:01:59.851Z,1.40
2023-03-20T14:04:29.600Z,1.67
2023-03-20T14:06:58.623Z,1.37
2023-03-20T14:09:36.187Z,1.70
2023-03-20T14:12:07.322Z,1.63
2023-03-20T14:14:42.103Z,1.80
2023-03-20T14:17:19.397Z,1.47
2023-03-20T14:19:49.764Z,1.57
2023-03-20T14:22:22.501Z,1.20
2023-03-20T14:24:56.152Z,1.10
2023-03-20T14:27:41.116Z,1.30
2023-03-20T14:30:41.854Z,0.90
2023-03-20T14:33:28.019Z,1.60
2023-03-20T14:36:22.667Z,1.40
2023-03-20T14:39:00.149Z,1.30
2023-03-20T14:41:32.667Z,1.33
2023-03-20T14:44:14.797Z,1.37
2023-03-20T14:46:49.883Z,1.47
2023-03-20T14:49:28.268Z,1.80
2023-03-20T14:52:03.477Z,1.37
2023-03-20T14:54:35.261Z,1.93
2023-03-20T14:57:11.340Z,1.40
2023-03-20T14:59:42.332Z,1.77
2023-03-20T15:02:28.447Z,1.90
2023-03-20T15:04:57.388Z,1.87
2023-03-20T15:07:30.033Z,1.63
2023-03-20T15:10:00.343Z,1.80
2023-03-20T15:12:30.456Z,1.70
2023-03-20T15:15:00.313Z,1.70
2023-03-20T15:17:29.989Z,1.60
2023-03-20T15:20:02.855Z,1.83
2023-03-20T15:22:32.388Z,2.70
2023-03-20T15:25:01.581Z,2.07
2023-03-20T15:27:43.343Z,2.00
2023-03-20T15:30:15.722Z,1.97
2023-03-20T15:32:44.145Z,2.40
2023-03-20T15:35:13.167Z,2.10
2023-03-20T15:37:47.717Z,1.90
2023-03-20T15:40:23.517Z,2.47
2023-03-20T15:42:55.526Z,2.40
2023-03-20T15:45:29.720Z,2.53
2023-03-20T15:48:01.663Z,2.20
2023-03-20T15:50:33.171Z,2.30
2023-03-20T15:53:02.841Z,2.33
2023-03-20T15:55:31.130Z,1.93
2023-03-20T15:58:00.637Z,1.70
2023-03-20T16:00:31.286Z,2.17
2023-03-20T16:03:00.954Z,2.00
2023-03-20T16:05:30.470Z,1.97
2023-03-20T16:08:15.150Z,1.80
2023-03-20T16:10:46.214Z,2.40
2023-03-20T16:13:17.150Z,2.03
2023-03-20T16:15:45.427Z,1.90
2023-03-20T16:18:18.146Z,1.90
2023-03-20T16:20:50.137Z,1.80
2023-03-20T16:23:34.286Z,1.80
2023-03-20T16:26:02.600Z,2.07
2023-03-20T16:28:33.375Z,1.83
2023-03-20T16:31:09.812Z,1.87
2023-03-20T16:33:40.253Z,2.33
2023-03-20T16:36:17.089Z,2.80
2023-03-20T16:38:56.760Z,2.97
2023-03-20T16:41:29.850Z,2.40
2023-03-20T16:43:58.281Z,3.17
2023-03-20T16:46:27.953Z,4.33
2023-03-20T16:49:04.177Z,3.00
2023-03-20T16:51:34.752Z,2.30
2023-03-20T16:54:06.971Z,2.60
2023-03-20T16:56:38.676Z,2.50
2023-03-20T16:59:08.856Z,3.10
2023-03-20T17:01:39.888Z,2.87
2023-03-20T17:04:25.908Z,3.07
2023-03-20T17:06:55.456Z,3.10
2023-03-20T17:09:31.204Z,3.17
2023-03-20T17:12:03.332Z,3.43
2023-03-20T17:14:31.683Z,3.40
2023-03-20T17:17:00.438Z,3.30
2023-03-20T17:19:30.739Z,3.07
2023-03-20T17:22:03.583Z,3.63
2023-03-20T17:24:32.850Z,3.17
2023-03-20T17:27:00.854Z,2.47
2023-03-20T17:29:29.023Z,2.80
2023-03-20T17:31:56.857Z,4.27
2023-03-20T17:34:27.677Z,3.07
2023-03-20T17:36:56.266Z,3.80
2023-03-20T17:39:24.792Z,3.13
2023-03-20T17:41:54.013Z,3.70
2023-03-20T17:44:22.148Z,3.53
2023-03-20T17:46:58.458Z,3.60
2023-03-20T17:49:29.542Z,3.73
2023-03-20T17:51:58.121Z,3.30
2023-03-20T17:54:28.590Z,5.17
2023-03-20T17:56:57.887Z,4.57
2023-03-20T17:59:28.785Z,3.77
2023-03-20T18:01:56.851Z,3.30
2023-03-20T18:04:25.347Z,3.40
2023-03-20T18:06:53.628Z,3.40
2023-03-20T18:09:34.258Z,3.20
2023-03-20T18:12:03.475Z,4.17
2023-03-20T18:14:31.745Z,3.50
2023-03-20T18:17:02.120Z,3.70
2023-03-20T18:19:33.135Z,4.00
2023-03-20T18:22:01.034Z,3.30
2023-03-20T18:24:28.958Z,3.07
2023-03-20T18:27:00.104Z,3.77
2023-03-20T18:29:32.279Z,3.10
2023-03-20T18:32:03.099Z,3.83
2023-03-20T18:34:35.106Z,3.27
2023-03-20T18:37:04.672Z,2.90
2023-03-20T18:39:33.084Z,2.80
2023-03-20T18:42:01.081Z,3.20
2023-03-20T18:44:30.249Z,3.30
2023-03-20T18:47:00.420Z,4.13
2023-03-20T18:49:31.686Z,5.23
2023-03-20T18:52:03.748Z,4.70
2023-03-20T18:54:36.914Z,4.60
2023-03-20T18:57:04.922Z,4.20
2023-03-20T18:59:34.046Z,5.23
2023-03-20T19:02:01.904Z,3.93
2023-03-20T19:04:32.822Z,5.50
2023-03-20T19:07:00.948Z,6.80
2023-03-20T19:09:31.439Z,5.40
2023-03-20T19:12:11.925Z,4.73
2023-03-20T19:14:46.868Z,4.10
2023-03-20T19:17:18.605Z,3.77
2023-03-20T19:19:46.401Z,3.30
2023-03-20T19:22:29.002Z,4.30
2023-03-20T19:24:57.310Z,3.60
2023-03-20T19:27:25.120Z,3.10
2023-03-20T19:29:57.172Z,2.83
2023-03-20T19:32:24.955Z,3.20
2023-03-20T19:35:40.877Z,3.43
2023-03-20T19:37:45.069Z,3.77
2023-03-20T19:40:21.898Z,3.50
2023-03-20T19:43:02.405Z,3.23
2023-03-20T19:45:34.121Z,3.30
2023-03-20T19:48:04.021Z,4.00
2023-03-20T19:50:34.971Z,4.17
2023-03-20T19:53:04.125Z,3.50
2023-03-20T19:55:40.472Z,4.30
2023-03-20T20:01:14.233Z,4.77
2023-03-20T20:03:43.531Z,5.33
2023-03-20T20:06:30.919Z,3.33
2023-03-20T20:09:01.854Z,4.00
2023-03-20T20:11:30.231Z,3.13
2023-03-20T20:14:07.012Z,3.50
2023-03-20T20:16:39.684Z,3.50
2023-03-20T20:19:07.813Z,3.40
2023-03-20T20:22:19.203Z,3.13
2023-03-20T20:24:28.963Z,2.60
2023-03-20T20:27:15.738Z,2.73
2023-03-20T20:29:44.688Z,2.30
2023-03-20T20:32:19.019Z,2.30
2023-03-20T20:38:27.171Z,3.07
2023-03-20T20:40:30.488Z,3.40
2023-03-20T20:43:01.751Z,3.27
2023-03-20T20:45:31.634Z,2.93
2023-03-20T20:48:01.540Z,2.27
2023-03-20T20:50:36.091Z,2.73
2023-03-20T20:53:08.200Z,2.00
2023-03-20T20:55:38.817Z,3.50
2023-03-20T20:58:06.934Z,2.87
2023-03-20T21:00:50.678Z,3.57
2023-03-20T21:03:22.479Z,3.53
2023-03-20T21:05:52.348Z,3.50
2023-03-20T21:08:20.145Z,4.77
2023-03-20T21:10:52.202Z,4.60
2023-03-20T21:13:22.951Z,5.40
2023-03-20T21:15:58.563Z,3.60
2023-03-20T21:18:27.910Z,3.00
2023-03-20T21:20:56.777Z,3.07
2023-03-20T21:23:26.027Z,2.77
2023-03-20T21:25:57.362Z,2.40
2023-03-20T21:28:27.390Z,2.00
2023-03-20T21:31:22.721Z,2.23
2023-03-20T21:33:44.394Z,2.57
2023-03-20T21:36:13.276Z,2.23
2023-03-20T21:41:31.405Z,2.10
2023-03-20T21:44:01.266Z,2.30
2023-03-20T21:55:45.869Z,1.80
2023-03-20T22:04:06.309Z,2.30
2023-03-20T22:09:52.300Z,2.47
2023-03-20T22:24:05.760Z,2.90
2023-03-20T22:32:33.355Z,3.13
2023-03-20T22:35:15.184Z,3.60
2023-03-20T22:37:56.214Z,3.73
2023-03-20T22:43:57.171Z,3.40
2023-03-20T22:46:03.240Z,3.83
2023-03-20T22:48:35.637Z,3.53
2023-03-20T22:51:03.389Z,3.27
2023-03-20T22:53:35.225Z,4.80
2023-03-20T22:56:07.566Z,3.77
2023-03-20T22:58:35.328Z,4.20
2023-03-20T23:01:03.298Z,4.00
2023-03-20T23:03:41.348Z,3.77
2023-03-20T23:06:11.396Z,4.03
2023-03-20T23:08:49.157Z,4.07
2023-03-20T23:11:21.476Z,3.43
2023-03-20T23:13:51.778Z,3.27
2023-03-20T23:16:20.190Z,3.20
2023-03-20T23:18:48.466Z,3.10
2023-03-20T23:21:18.267Z,2.70
2023-03-20T23:23:57.530Z,2.80
2023-03-20T23:26:29.070Z,3.00
2023-03-20T23:28:57.634Z,2.87
2023-03-20T23:31:28.920Z,3.10
2023-03-20T23:33:58.871Z,3.43
2023-03-20T23:36:37.170Z,2.73
2023-03-20T23:39:06.072Z,2.80
2023-03-20T23:42:04.687Z,2.60
2023-03-20T23:44:23.874Z,2.83
2023-03-20T23:46:51.749Z,2.50
2023-03-20T23:49:19.631Z,2.83
2023-03-20T23:51:47.673Z,3.10
2023-03-20T23:54:15.961Z,2.27
2023-03-20T23:56:45.272Z,3.03
2023-03-20T23:59:21.847Z,2.97
